< Typhoon 196723 1967 Season Typhoon 196725 >
Typhoon 196724 (RUTH)
General InformationTrack Information on Google Maps || Disaster Info.ResourceGoogle EarthGE AnimationAtom FeedGeoJSON
Detalied Best Track (Time Zone = UTC)
Year Month Day Hour Lat. Long. Pressure (hPa) Wind (kt) Class Image Chart
1967 9 5 00 23.0 168.0 1006 0 2 -- Chart
1967 9 5 06 22.0 168.0 1004 0 2 -- Chart
1967 9 5 12 22.0 169.0 1004 0 2 -- Chart
1967 9 5 18 23.0 169.0 1004 0 2 -- Chart
1967 9 6 00 23.9 168.0 1002 0 2 -- Chart
1967 9 6 06 24.4 166.8 1000 0 2 -- Chart
1967 9 6 12 25.1 165.5 1000 0 2 -- Chart
1967 9 6 18 25.3 164.5 1000 0 2 -- Chart
1967 9 7 00 25.6 163.6 998 0 9 -- Chart
1967 9 7 06 26.2 163.7 995 0 9 -- Chart
1967 9 7 12 26.4 163.5 995 0 9 -- Chart
1967 9 7 18 26.5 163.8 995 0 9 -- Chart
1967 9 8 00 26.9 163.9 995 0 9 -- Chart
1967 9 8 06 27.2 163.6 994 0 9 -- Chart
1967 9 8 12 27.1 163.3 994 0 9 -- Chart
1967 9 8 18 27.1 163.1 992 0 9 -- Chart
1967 9 9 00 27.0 162.9 990 0 9 -- Chart
1967 9 9 06 26.9 162.5 985 0 9 -- Chart
1967 9 9 12 26.5 162.3 980 0 9 -- Chart
1967 9 9 18 26.0 162.4 970 0 9 -- Chart
1967 9 10 00 25.8 162.2 965 0 9 -- Chart
1967 9 10 06 25.6 162.5 962 0 9 -- Chart
1967 9 10 12 25.3 161.2 962 0 9 -- Chart
1967 9 10 18 25.1 160.7 962 0 9 -- Chart
1967 9 11 00 25.0 160.3 962 0 9 -- Chart
1967 9 11 06 24.9 159.4 960 0 9 -- Chart
1967 9 11 12 25.3 158.3 950 0 9 -- Chart
1967 9 11 18 25.7 157.1 945 0 9 -- Chart
1967 9 12 00 26.9 155.7 940 0 9 -- Chart
1967 9 12 06 28.3 154.5 940 0 9 -- Chart
1967 9 12 12 29.4 153.5 950 0 9 -- Chart
1967 9 12 18 30.9 152.1 960 0 9 -- Chart
1967 9 13 00 32.7 151.6 960 0 9 -- Chart
1967 9 13 06 34.6 151.3 962 0 9 -- Chart
1967 9 13 12 36.8 151.6 965 0 9 -- Chart
1967 9 13 18 39.4 152.3 975 0 9 -- Chart
1967 9 14 00 41.3 154.3 985 0 9 -- Chart
1967 9 14 06 43.0 157.0 990 0 9 -- Chart
Japan Meteorological Agency Best Track Data | Correction Date : 1989-06-01
< Typhoon 196723 1967 Season Typhoon 196725 >

Help